Wichita Mid Continent Airport
KICT : now visible

Airfield :











YOU CAN JOIN US ON...

 
LOGIN :

Register | Disclaimer

   EN    FR    IT 

 









Legend :    VFR   Marginal VFR   IFR   Intensive IFR   Very Intensive IFR
Visi :
Ceiling :
>= 8 km
>= 3000ft
5 to 8 km
1000 to 3000 ft
1500m to 5 km
500 to 1000 ft
800 to 1500m
200 to 500 ft
< 800m
< 200 ft
Symbols :   Thunderstorms  Fog  Heavy snow  Heavy precipitations  Wind > 20 kt







- Airport Elevation : 1333 ft
- IATA code : ICT


KICT - Wichita Mid Continent

CURRENT METAR :
  • 262353Z 16017G25KT 10SM FEW050 FEW120 SCT180 BKN250 28/20 A2964 RMK AO2 PK WND 16027/2303 SLP019 CB DSNT NW-N MOV N 60004 T02830200 10289 20239 56029

EXPIRED METARs :
  • 262253Z 16016G23KT 10SM FEW049 FEW060TCU SCT075 SCT130 BKN220 29/22 A2966 RMK AO2 TSE2158 SLP027 TCU VC SW-NW T02890217
  • 262200Z 15011KT 10SM FEW018 BKN043 BKN065 BKN130 BKN200 28/23 A2968
  • 262153Z 09007KT 10SM TS FEW021 BKN033CB BKN043 BKN130 OVC180 28/23 A2969 RMK AO2 RAB28E45 TSB17 SLP039 OCNL LTGIC VC N TS VC N MOV N P0001 T02780228
  • 262118Z 11007KT 10SM TS SCT055CB BKN070 OVC180 27/22 A2970 RMK AO2 TSB17 PRESFR OCNL LTGIC VC NE-E TS VC NE-E MOV N T02670222

TAF KICT
Valid from the 27 at 00:00 until the 28 at 00:00 UTC


262324Z 2700/2724 16015G24KT P6SM VCTS BKN040CB
FM270500 16014KT P6SM SCT015 BKN050
FM271000 15011KT 6SM BR OVC010
FM271600 17015G23KT P6SM SCT030
FM271900 17017G24KT P6SM VCTS BKN035CB
KZKC FIR / North America



MET'MAP, your aeronautical weather chart ! - Copyright ORBIFLY December 2007 - Disclaimer

ORBIFLY MET'MAP TEAM :

Programming & Development : Alexandra Zaïnal
Concept & Development : Baudouin d'Aumeries
Co-Development & Prog : Marc-Olivier Méhu
Technical & hardware support : Manuel Goepfert

Contact : metmap@orbifly.com




SOURCES & CREDITS :

   NOAA       Earth
Advisory